createdAt,value
2023-09-01T00:01:51.917Z,57.96
2023-09-01T00:04:58.992Z,57.76
2023-09-01T00:07:44.385Z,57.81
2023-09-01T00:10:30.196Z,57.93
2023-09-01T00:13:15.935Z,57.82
2023-09-01T00:16:01.313Z,57.73
2023-09-01T00:18:46.675Z,57.76
2023-09-01T00:21:32.133Z,57.66
2023-09-01T00:24:17.468Z,57.80
2023-09-01T00:27:03.143Z,57.85
2023-09-01T00:29:48.789Z,57.84
2023-09-01T00:32:34.226Z,58.04
2023-09-01T00:35:19.718Z,57.84
2023-09-01T00:38:05.118Z,57.79
2023-09-01T00:40:51.029Z,58.18
2023-09-01T00:43:36.415Z,57.95
2023-09-01T00:46:21.781Z,58.04
2023-09-01T00:49:07.173Z,58.03
2023-09-01T00:51:52.807Z,57.94
2023-09-01T00:54:38.553Z,58.02
2023-09-01T00:57:24.022Z,58.09
2023-09-01T01:00:09.791Z,58.13
2023-09-01T01:02:56.753Z,57.93
2023-09-01T01:05:57.536Z,58.08
2023-09-01T01:08:48.855Z,58.03
2023-09-01T01:12:00.093Z,58.04
2023-09-01T01:14:52.495Z,58.11
2023-09-01T01:17:44.266Z,57.96
2023-09-01T01:20:39.466Z,58.02
2023-09-01T01:23:25.021Z,58.09
2023-09-01T01:26:16.040Z,58.18
2023-09-01T01:29:01.995Z,58.05
2023-09-01T01:31:47.697Z,57.98
2023-09-01T01:34:38.290Z,58.07
2023-09-01T01:37:34.034Z,58.08
2023-09-01T01:40:21.545Z,58.19
2023-09-01T01:43:11.386Z,58.25
2023-09-01T01:45:57.816Z,58.25
2023-09-01T01:48:43.520Z,58.05
2023-09-01T01:51:28.913Z,58.36
2023-09-01T01:54:14.515Z,58.20
2023-09-01T01:57:00.665Z,58.43
2023-09-01T01:59:46.453Z,58.10
2023-09-01T02:02:31.941Z,58.16
2023-09-01T02:05:17.327Z,58.41
2023-09-01T02:08:07.118Z,58.18
2023-09-01T02:10:52.745Z,58.05
2023-09-01T02:13:38.099Z,58.37
2023-09-01T02:16:26.616Z,58.32
2023-09-01T02:19:13.272Z,58.24
2023-09-01T02:21:58.837Z,58.36
2023-09-01T02:24:44.133Z,58.29
2023-09-01T02:27:30.017Z,58.36
2023-09-01T02:30:15.624Z,58.38
2023-09-01T02:33:01.308Z,58.41
2023-09-01T02:35:49.266Z,58.26
2023-09-01T02:38:34.772Z,58.21
2023-09-01T02:41:21.059Z,58.38
2023-09-01T02:44:06.849Z,58.39
2023-09-01T02:46:52.159Z,58.29
2023-09-01T02:49:37.616Z,58.38
2023-09-01T02:52:22.874Z,58.56
2023-09-01T02:55:09.672Z,58.28
2023-09-01T02:57:55.221Z,58.45
2023-09-01T03:00:40.775Z,58.33
2023-09-01T03:03:26.145Z,58.13
2023-09-01T03:06:11.758Z,58.45
2023-09-01T03:08:58.337Z,58.31
2023-09-01T03:11:43.644Z,58.38
2023-09-01T03:14:28.919Z,58.42
2023-09-01T03:17:14.499Z,58.39
2023-09-01T03:19:59.925Z,58.45
2023-09-01T03:22:45.388Z,58.46
2023-09-01T03:25:30.786Z,58.44
2023-09-01T03:28:16.315Z,58.44
2023-09-01T03:31:02.090Z,58.38
2023-09-01T03:33:49.423Z,58.37
2023-09-01T03:36:34.760Z,58.35
2023-09-01T03:39:20.177Z,58.43
2023-09-01T03:42:05.663Z,58.48
2023-09-01T03:44:50.890Z,58.47
2023-09-01T03:47:36.303Z,58.64
2023-09-01T03:50:21.617Z,58.39
2023-09-01T03:53:06.950Z,58.32
2023-09-01T03:55:52.407Z,58.58
2023-09-01T03:58:41.781Z,58.48
2023-09-01T04:01:28.221Z,58.57
2023-09-01T04:04:14.592Z,58.81
2023-09-01T04:07:00.074Z,59.50
2023-09-01T04:09:45.338Z,59.22
2023-09-01T04:12:30.772Z,59.47
2023-09-01T04:15:16.422Z,59.11
2023-09-01T04:18:02.113Z,59.27
2023-09-01T04:20:49.139Z,59.23
2023-09-01T04:23:34.896Z,59.13
2023-09-01T04:26:21.782Z,59.18
2023-09-01T04:29:08.028Z,59.15
2023-09-01T04:31:54.317Z,56.27
2023-09-01T04:34:40.060Z,57.33
2023-09-01T04:37:26.168Z,57.60
2023-09-01T04:40:12.452Z,58.21
2023-09-01T04:42:58.628Z,58.20
2023-09-01T04:45:46.653Z,58.31
2023-09-01T04:48:32.802Z,58.14
2023-09-01T04:51:18.384Z,57.28
2023-09-01T04:54:04.357Z,57.21
2023-09-01T04:56:50.073Z,57.42
2023-09-01T04:59:35.575Z,57.26
2023-09-01T05:02:21.112Z,57.26
2023-09-01T05:05:07.874Z,57.08
2023-09-01T05:07:53.824Z,56.84
2023-09-01T05:10:39.459Z,57.02
2023-09-01T05:13:27.271Z,56.75
2023-09-01T05:16:14.559Z,57.03
2023-09-01T05:18:59.816Z,56.92
2023-09-01T05:21:45.254Z,56.69
2023-09-01T05:24:30.468Z,56.93
2023-09-01T05:27:21.285Z,57.17
2023-09-01T05:30:07.719Z,57.16
2023-09-01T05:32:53.533Z,57.46
2023-09-01T05:35:39.283Z,57.61
2023-09-01T05:38:25.459Z,57.47
2023-09-01T05:41:14.173Z,57.41
2023-09-01T05:43:59.777Z,57.45
2023-09-01T05:46:45.629Z,57.40
2023-09-01T05:49:32.913Z,57.82
2023-09-01T05:52:18.611Z,57.79
2023-09-01T05:55:04.250Z,57.53
2023-09-01T05:57:49.438Z,57.50
2023-09-01T06:00:35.402Z,57.60
2023-09-01T06:03:20.968Z,57.43
2023-09-01T06:06:08.710Z,57.46
2023-09-01T06:08:54.119Z,57.41
2023-09-01T06:11:40.282Z,56.93
2023-09-01T06:14:26.061Z,57.29
2023-09-01T06:17:11.460Z,57.29
2023-09-01T06:19:56.924Z,57.25
2023-09-01T06:22:42.378Z,57.24
2023-09-01T06:25:27.859Z,56.98
2023-09-01T06:28:14.737Z,57.06
2023-09-01T06:31:00.421Z,56.96
2023-09-01T06:33:46.008Z,57.16
2023-09-01T06:36:31.498Z,57.18
2023-09-01T06:39:19.610Z,57.33
2023-09-01T06:42:05.981Z,57.00
2023-09-01T06:44:52.526Z,57.09
2023-09-01T06:47:38.097Z,57.21
2023-09-01T06:50:23.521Z,57.19
2023-09-01T06:53:09.284Z,57.40
2023-09-01T06:55:54.443Z,57.37
2023-09-01T06:58:40.165Z,57.54
2023-09-01T07:01:25.644Z,57.55
2023-09-01T07:04:11.414Z,57.60
2023-09-01T07:06:56.956Z,57.87
2023-09-01T07:09:42.446Z,57.89
2023-09-01T07:12:27.841Z,57.81
2023-09-01T07:15:13.325Z,57.86
2023-09-01T07:17:58.517Z,58.10
2023-09-01T07:20:46.998Z,58.02
2023-09-01T07:23:32.823Z,58.03
2023-09-01T07:26:18.240Z,57.65
2023-09-01T07:29:03.743Z,57.57
2023-09-01T07:31:49.415Z,57.62
2023-09-01T07:34:35.388Z,57.62
2023-09-01T07:37:20.893Z,57.70
2023-09-01T07:40:07.167Z,57.78
2023-09-01T07:42:53.036Z,57.84
2023-09-01T07:45:38.576Z,57.78
2023-09-01T07:48:24.411Z,57.75
2023-09-01T07:51:09.942Z,57.80
2023-09-01T07:53:55.852Z,56.11
2023-09-01T07:56:41.998Z,55.80
2023-09-01T07:59:27.707Z,55.84
2023-09-01T08:02:13.491Z,55.29
2023-09-01T08:04:59.252Z,55.17
2023-09-01T08:07:44.848Z,54.80
2023-09-01T08:10:31.789Z,54.71
2023-09-01T08:13:18.464Z,54.81
2023-09-01T08:16:04.148Z,54.91
2023-09-01T08:18:49.693Z,54.89
2023-09-01T08:21:35.162Z,55.06
2023-09-01T08:24:21.142Z,54.49
2023-09-01T08:27:07.272Z,53.89
2023-09-01T08:29:52.882Z,53.52
2023-09-01T08:32:42.356Z,54.06
2023-09-01T08:35:28.566Z,53.75
2023-09-01T08:38:14.154Z,54.19
2023-09-01T08:41:08.804Z,53.86
2023-09-01T08:43:58.989Z,53.78
2023-09-01T08:46:47.292Z,53.52
2023-09-01T08:49:35.059Z,53.49
2023-09-01T08:52:20.596Z,53.80
2023-09-01T08:55:06.651Z,53.68
2023-09-01T08:57:52.991Z,53.32
2023-09-01T09:00:38.522Z,54.10
2023-09-01T09:03:23.958Z,54.26
2023-09-01T09:06:13.772Z,54.35
2023-09-01T09:09:15.548Z,54.46
2023-09-01T09:12:01.454Z,54.74
2023-09-01T09:14:58.789Z,54.65
2023-09-01T09:17:46.761Z,54.82
2023-09-01T09:20:39.312Z,54.96
2023-09-01T09:23:45.684Z,55.08
2023-09-01T09:26:32.555Z,55.22
2023-09-01T09:29:17.840Z,55.50
2023-09-01T09:32:16.480Z,55.35
2023-09-01T09:35:13.783Z,55.54
2023-09-01T09:38:00.799Z,55.65
2023-09-01T09:41:06.292Z,55.58
2023-09-01T09:43:51.767Z,55.54
2023-09-01T09:46:42.756Z,55.68
2023-09-01T09:49:32.190Z,55.59
2023-09-01T09:52:18.638Z,55.85
2023-09-01T09:55:09.119Z,55.66
2023-09-01T09:58:08.556Z,55.70
2023-09-01T10:01:04.024Z,55.60
2023-09-01T10:03:50.785Z,56.16
2023-09-01T10:06:36.860Z,56.20
2023-09-01T10:09:22.322Z,55.79
2023-09-01T10:12:08.237Z,56.12
2023-09-01T10:14:55.394Z,56.11
2023-09-01T10:17:43.414Z,56.05
2023-09-01T10:20:31.139Z,56.36
2023-09-01T10:23:16.378Z,56.22
2023-09-01T10:26:18.833Z,56.17
2023-09-01T10:29:06.185Z,56.13
2023-09-01T10:32:18.414Z,55.54
2023-09-01T10:35:05.064Z,55.86
2023-09-01T10:38:18.796Z,55.59
2023-09-01T10:41:04.789Z,55.99
2023-09-01T10:43:54.665Z,55.93
2023-09-01T10:46:40.183Z,56.28
2023-09-01T10:49:58.321Z,55.85
2023-09-01T10:52:44.141Z,55.70
2023-09-01T10:55:34.339Z,55.77
2023-09-01T10:58:19.592Z,55.77
2023-09-01T11:01:31.996Z,55.94
2023-09-01T11:04:17.413Z,56.06
2023-09-01T11:07:09.278Z,55.95
2023-09-01T11:09:57.567Z,55.80
2023-09-01T11:12:42.804Z,55.63
2023-09-01T11:15:28.249Z,55.50
2023-09-01T11:18:21.355Z,56.20
2023-09-01T11:21:09.505Z,55.67
2023-09-01T11:24:01.914Z,56.05
2023-09-01T11:26:48.365Z,55.50
2023-09-01T11:29:34.029Z,55.45
2023-09-01T11:32:28.263Z,55.38
2023-09-01T11:35:28.844Z,55.04
2023-09-01T11:38:19.734Z,54.97
2023-09-01T11:41:08.378Z,54.78
2023-09-01T11:43:57.848Z,54.96
2023-09-01T11:46:45.732Z,55.13
2023-09-01T11:49:31.641Z,54.65
2023-09-01T11:52:17.121Z,55.10
2023-09-01T11:55:02.497Z,54.62
2023-09-01T11:57:54.921Z,55.07
2023-09-01T12:00:42.988Z,54.89
2023-09-01T12:03:38.135Z,54.94
2023-09-01T12:06:29.269Z,55.01
2023-09-01T12:09:17.366Z,55.06
2023-09-01T12:12:04.313Z,54.99
2023-09-01T12:15:06.406Z,54.81
2023-09-01T12:17:51.994Z,54.84
2023-09-01T12:20:38.460Z,54.82
2023-09-01T12:23:33.456Z,54.94
2023-09-01T12:26:19.645Z,54.90
2023-09-01T12:29:06.685Z,54.87
2023-09-01T12:31:52.577Z,54.87
2023-09-01T12:34:38.250Z,55.09
2023-09-01T12:37:26.212Z,54.84
2023-09-01T12:40:11.840Z,55.05
2023-09-01T12:42:57.545Z,54.84
2023-09-01T12:45:43.760Z,55.18
2023-09-01T12:48:29.368Z,54.67
2023-09-01T12:51:14.738Z,54.71
2023-09-01T12:54:09.742Z,54.76
2023-09-01T12:57:01.182Z,55.05
2023-09-01T12:59:46.398Z,54.84
2023-09-01T13:02:31.841Z,54.69
2023-09-01T13:05:21.775Z,54.40
2023-09-01T13:08:07.247Z,54.44
2023-09-01T13:10:52.524Z,54.83
2023-09-01T13:13:38.550Z,54.73
2023-09-01T13:16:29.825Z,54.57
2023-09-01T13:19:15.443Z,54.59
2023-09-01T13:22:01.539Z,54.64
2023-09-01T13:24:47.147Z,54.71
2023-09-01T13:27:33.856Z,54.64
2023-09-01T13:30:20.577Z,54.57
2023-09-01T13:33:07.284Z,54.72
2023-09-01T13:35:55.070Z,54.64
2023-09-01T13:38:40.831Z,54.38
2023-09-01T13:41:26.404Z,54.47
2023-09-01T13:44:11.730Z,54.90
2023-09-01T13:46:57.515Z,54.71
2023-09-01T13:49:44.138Z,54.52
2023-09-01T13:52:29.972Z,54.30
2023-09-01T13:55:15.616Z,54.47
2023-09-01T13:58:00.622Z,54.74
2023-09-01T14:00:46.083Z,54.70
2023-09-01T14:03:32.313Z,54.82
2023-09-01T14:06:17.870Z,54.90
2023-09-01T14:09:05.460Z,54.91
2023-09-01T14:11:50.711Z,54.84
2023-09-01T14:14:36.189Z,54.75
2023-09-01T14:17:23.223Z,55.03
2023-09-01T14:20:09.651Z,54.88
2023-09-01T14:22:55.217Z,55.15
2023-09-01T14:25:41.481Z,55.02
2023-09-01T14:28:27.973Z,54.78
2023-09-01T14:31:15.139Z,55.35
2023-09-01T14:34:00.833Z,55.27
2023-09-01T14:36:46.177Z,55.28
2023-09-01T14:39:31.628Z,55.69
2023-09-01T14:42:16.883Z,55.52
2023-09-01T14:45:02.451Z,55.38
2023-09-01T14:47:47.845Z,55.51
2023-09-01T14:50:35.217Z,55.49
2023-09-01T14:53:20.754Z,55.63
2023-09-01T14:56:09.873Z,55.55
2023-09-01T14:58:57.260Z,55.64
2023-09-01T15:01:42.901Z,55.63
2023-09-01T15:04:28.582Z,55.67
2023-09-01T15:07:13.775Z,56.02
2023-09-01T15:09:59.284Z,56.27
2023-09-01T15:12:45.127Z,56.33
2023-09-01T15:15:30.602Z,56.10
2023-09-01T15:18:16.083Z,56.11
2023-09-01T15:21:09.614Z,56.07
2023-09-01T15:23:55.126Z,55.80
2023-09-01T15:26:40.603Z,55.95
2023-09-01T15:29:25.830Z,56.00
2023-09-01T15:32:11.356Z,55.80
2023-09-01T15:35:09.181Z,56.32
2023-09-01T15:38:02.779Z,56.00
2023-09-01T15:40:48.441Z,56.03
2023-09-01T15:43:33.970Z,55.78
2023-09-01T15:46:19.799Z,56.25
2023-09-01T15:49:05.366Z,56.11
2023-09-01T15:51:50.708Z,56.87
2023-09-01T15:54:35.983Z,56.45
2023-09-01T15:57:21.877Z,56.49
2023-09-01T16:00:09.568Z,56.67
2023-09-01T16:02:55.068Z,56.63
2023-09-01T16:05:41.030Z,56.46
2023-09-01T16:08:26.477Z,57.02
2023-09-01T16:11:11.874Z,56.97
2023-09-01T16:13:57.784Z,57.10
2023-09-01T16:16:43.304Z,56.69
2023-09-01T16:19:29.221Z,56.90
2023-09-01T16:22:14.707Z,56.86
2023-09-01T16:25:00.161Z,56.70
2023-09-01T16:27:46.240Z,57.33
2023-09-01T16:30:33.252Z,56.82
2023-09-01T16:33:18.738Z,56.69
2023-09-01T16:36:04.465Z,57.18
2023-09-01T16:38:50.180Z,57.41
2023-09-01T16:41:36.026Z,57.26
2023-09-01T16:44:21.541Z,57.18
2023-09-01T16:47:06.613Z,57.45
2023-09-01T16:49:51.884Z,57.40
2023-09-01T16:52:38.328Z,57.50
2023-09-01T16:55:23.740Z,57.36
2023-09-01T16:58:09.598Z,57.39
2023-09-01T17:00:55.025Z,57.23
2023-09-01T17:03:40.375Z,57.23
2023-09-01T17:06:25.851Z,57.35
2023-09-01T17:09:11.167Z,57.35
2023-09-01T17:11:56.639Z,57.46
2023-09-01T17:14:42.611Z,57.09
2023-09-01T17:17:28.182Z,57.44
2023-09-01T17:20:17.605Z,57.59
2023-09-01T17:23:04.503Z,57.84
2023-09-01T17:25:50.121Z,57.89
2023-09-01T17:28:38.294Z,57.82
2023-09-01T17:31:24.014Z,57.79
2023-09-01T17:34:09.386Z,57.91
2023-09-01T17:36:54.814Z,57.98
2023-09-01T17:39:40.334Z,58.17
2023-09-01T17:42:26.248Z,58.24
2023-09-01T17:45:11.928Z,58.20
2023-09-01T17:47:57.303Z,58.24
2023-09-01T17:50:42.978Z,58.27
2023-09-01T17:53:29.646Z,58.42
2023-09-01T17:56:15.050Z,58.12
2023-09-01T17:59:00.473Z,58.58
2023-09-01T18:01:52.680Z,58.20
2023-09-01T18:04:38.427Z,58.54
2023-09-01T18:07:25.931Z,58.60
2023-09-01T18:10:11.688Z,58.80
2023-09-01T18:12:57.123Z,58.72
2023-09-01T18:15:43.203Z,58.79
2023-09-01T18:18:28.772Z,58.68
2023-09-01T18:21:15.504Z,59.12
2023-09-01T18:24:11.309Z,59.32
2023-09-01T18:26:57.356Z,59.34
2023-09-01T18:29:43.223Z,59.10
2023-09-01T18:32:29.703Z,59.29
2023-09-01T18:35:15.479Z,59.13
2023-09-01T18:38:04.316Z,59.49
2023-09-01T18:40:52.869Z,59.43
2023-09-01T18:43:42.096Z,59.75
2023-09-01T18:46:32.406Z,59.79
2023-09-01T18:49:18.175Z,59.87
2023-09-01T18:52:04.881Z,59.84
2023-09-01T18:54:51.242Z,59.67
2023-09-01T18:57:37.021Z,60.06
2023-09-01T19:00:28.288Z,60.14
2023-09-01T19:03:21.102Z,60.36
2023-09-01T19:06:08.628Z,60.18
2023-09-01T19:08:55.658Z,60.32
2023-09-01T19:11:45.451Z,60.60
2023-09-01T19:14:30.938Z,60.57
2023-09-01T19:17:18.694Z,60.65
2023-09-01T19:20:20.007Z,60.88
2023-09-01T19:23:28.252Z,60.88
2023-09-01T19:26:21.547Z,60.64
2023-09-01T19:29:14.113Z,60.77
2023-09-01T19:31:59.661Z,60.87
2023-09-01T19:34:45.028Z,60.88
2023-09-01T19:37:30.368Z,60.73
2023-09-01T19:40:15.922Z,60.87
2023-09-01T19:43:07.156Z,60.83
2023-09-01T19:45:53.923Z,60.84
2023-09-01T19:48:40.831Z,60.81
2023-09-01T19:51:26.324Z,60.93
2023-09-01T19:54:17.102Z,60.99
2023-09-01T19:57:03.155Z,60.95
2023-09-01T19:59:51.463Z,60.86
2023-09-01T20:02:37.047Z,60.62
2023-09-01T20:05:24.120Z,60.83
2023-09-01T20:08:09.269Z,61.01
2023-09-01T20:10:54.763Z,61.25
2023-09-01T20:13:42.549Z,61.19
2023-09-01T20:16:30.933Z,61.02
2023-09-01T20:19:21.747Z,60.73
2023-09-01T20:22:07.192Z,60.94
2023-09-01T20:24:53.151Z,61.56
2023-09-01T20:27:39.084Z,61.61
2023-09-01T20:30:25.476Z,61.73
2023-09-01T20:33:11.374Z,61.33
2023-09-01T20:35:56.603Z,61.63
2023-09-01T20:38:44.170Z,62.50
2023-09-01T20:41:30.113Z,62.55
2023-09-01T20:44:16.092Z,62.46
2023-09-01T20:47:02.020Z,62.18
2023-09-01T20:49:47.551Z,62.26
2023-09-01T20:52:38.033Z,62.43
2023-09-01T20:55:23.512Z,62.21
2023-09-01T20:58:09.027Z,62.32
2023-09-01T21:00:55.109Z,62.27
2023-09-01T21:03:41.543Z,62.44
2023-09-01T21:06:26.968Z,62.37
2023-09-01T21:09:12.396Z,61.92
2023-09-01T21:11:58.275Z,62.03
2023-09-01T21:14:43.604Z,61.83
2023-09-01T21:17:29.056Z,61.50
2023-09-01T21:20:14.699Z,61.70
2023-09-01T21:23:00.391Z,62.12
2023-09-01T21:25:45.689Z,61.89
2023-09-01T21:28:33.069Z,61.56
2023-09-01T21:31:18.992Z,61.15
2023-09-01T21:34:04.742Z,61.12
2023-09-01T21:36:50.104Z,61.07
2023-09-01T21:39:35.511Z,60.77
2023-09-01T21:42:20.958Z,60.64
2023-09-01T21:45:07.228Z,60.46
2023-09-01T21:47:52.940Z,60.52
2023-09-01T21:50:38.892Z,60.09
2023-09-01T21:53:25.007Z,60.45
2023-09-01T21:56:10.575Z,60.05
2023-09-01T21:58:56.117Z,60.02
2023-09-01T22:01:41.758Z,59.98
2023-09-01T22:04:27.033Z,60.27
2023-09-01T22:07:12.570Z,59.79
2023-09-01T22:09:58.924Z,59.96
2023-09-01T22:12:44.506Z,59.96
2023-09-01T22:15:30.629Z,59.87
2023-09-01T22:18:16.092Z,59.73
2023-09-01T22:21:01.454Z,59.72
2023-09-01T22:23:46.838Z,59.60
2023-09-01T22:26:36.951Z,59.69
2023-09-01T22:29:22.472Z,60.18
2023-09-01T22:32:11.114Z,60.35
2023-09-01T22:34:56.501Z,60.25
2023-09-01T22:37:42.006Z,59.80
2023-09-01T22:40:27.334Z,60.52
2023-09-01T22:43:17.117Z,60.12
2023-09-01T22:46:02.997Z,60.13
2023-09-01T22:48:48.331Z,60.22
2023-09-01T22:51:33.875Z,60.52
2023-09-01T22:54:19.443Z,60.50
2023-09-01T22:57:05.060Z,60.57
2023-09-01T22:59:53.875Z,60.44
2023-09-01T23:02:39.708Z,60.52
2023-09-01T23:05:25.006Z,60.60
2023-09-01T23:08:10.478Z,60.58
2023-09-01T23:10:55.809Z,60.49
2023-09-01T23:13:41.027Z,60.39
2023-09-01T23:16:26.352Z,60.62
2023-09-01T23:19:11.939Z,60.71
2023-09-01T23:21:57.361Z,60.80
2023-09-01T23:24:42.731Z,60.72
2023-09-01T23:27:28.102Z,60.81
2023-09-01T23:30:14.994Z,61.00
2023-09-01T23:33:00.644Z,60.91
2023-09-01T23:35:46.004Z,60.75
2023-09-01T23:38:32.307Z,60.72
2023-09-01T23:41:17.620Z,60.99
2023-09-01T23:44:03.664Z,61.02
2023-09-01T23:46:49.009Z,60.87
2023-09-01T23:49:34.409Z,60.96
2023-09-01T23:52:19.760Z,61.11
2023-09-01T23:55:05.745Z,61.05
2023-09-01T23:57:51.308Z,60.94
